createdAt,value
2019-01-03T00:00:51.624Z,4.50
2019-01-03T00:03:39.561Z,3.80
2019-01-03T00:06:28.725Z,3.20
2019-01-03T00:09:17.890Z,2.90
2019-01-03T00:12:19.342Z,2.70
2019-01-03T00:15:23.355Z,2.50
2019-01-03T00:18:27.781Z,2.40
2019-01-03T00:21:15.818Z,2.40
2019-01-03T00:24:10.921Z,2.30
2019-01-03T00:27:00.190Z,2.30
2019-01-03T00:29:55.704Z,2.50
2019-01-03T00:32:51.621Z,2.60
2019-01-03T00:35:43.764Z,2.60
2019-01-03T00:38:45.112Z,2.80
2019-01-03T00:41:37.356Z,2.90
2019-01-03T00:44:23.233Z,3.00
2019-01-03T00:47:11.075Z,3.20
2019-01-03T00:50:09.353Z,3.30
2019-01-03T00:52:57.084Z,3.40
2019-01-03T00:55:49.219Z,3.40
2019-01-03T00:58:41.344Z,3.30
2019-01-03T01:01:36.254Z,3.40
2019-01-03T01:04:24.193Z,3.60
2019-01-03T01:07:10.065Z,3.50
2019-01-03T01:10:08.051Z,3.50
2019-01-03T01:13:03.053Z,3.60
2019-01-03T01:15:50.888Z,3.80
2019-01-03T01:18:38.926Z,4.00
2019-01-03T01:21:21.333Z,4.00
2019-01-03T01:24:25.859Z,4.00
2019-01-03T01:27:07.139Z,4.00
2019-01-03T01:29:59.274Z,4.00
2019-01-03T01:32:51.409Z,4.00
2019-01-03T01:35:40.572Z,4.00
2019-01-03T01:38:32.291Z,4.30
2019-01-03T01:41:20.138Z,4.40
2019-01-03T01:44:18.413Z,4.40
2019-01-03T01:47:16.591Z,4.40
2019-01-03T01:50:24.186Z,4.40
2019-01-03T01:53:16.013Z,4.50
2019-01-03T01:56:06.409Z,4.50
2019-01-03T01:58:54.448Z,4.50
2019-01-03T02:01:43.818Z,4.20
2019-01-03T02:04:35.649Z,4.10
2019-01-03T02:07:16.927Z,4.00
2019-01-03T02:10:06.194Z,3.90
2019-01-03T02:12:54.130Z,4.00
2019-01-03T02:15:53.125Z,4.00
2019-01-03T02:18:51.507Z,4.10
2019-01-03T02:21:52.552Z,4.20
2019-01-03T02:24:40.795Z,4.30
2019-01-03T02:27:45.423Z,4.20
2019-01-03T02:30:40.425Z,4.30
2019-01-03T02:33:28.566Z,4.10
2019-01-03T02:36:20.601Z,4.00
2019-01-03T02:39:08.433Z,4.10
2019-01-03T02:42:06.507Z,4.20
2019-01-03T02:45:08.200Z,4.10
2019-01-03T02:47:57.433Z,3.90
2019-01-03T02:50:52.537Z,3.80
2019-01-03T02:53:40.679Z,3.60
2019-01-03T02:56:42.018Z,3.30
2019-01-03T02:59:43.892Z,3.00
2019-01-03T03:02:48.214Z,2.70
2019-01-03T03:05:52.431Z,2.60
2019-01-03T03:08:50.498Z,2.70
2019-01-03T03:11:48.579Z,2.70
2019-01-03T03:14:49.727Z,2.60
2019-01-03T03:17:47.076Z,2.40
2019-01-03T03:20:35.226Z,2.40
2019-01-03T03:23:24.389Z,2.20
2019-01-03T03:26:09.664Z,1.90
2019-01-03T03:29:16.853Z,1.80
2019-01-03T03:32:06.126Z,1.70
2019-01-03T03:34:54.160Z,1.60
2019-01-03T03:37:43.222Z,1.60
2019-01-03T03:40:38.433Z,1.40
2019-01-03T03:43:36.810Z,0.80
2019-01-03T03:46:26.386Z,1.50
2019-01-03T03:49:14.528Z,1.40
2019-01-03T03:52:16.090Z,1.60
2019-01-03T03:55:11.084Z,1.30
2019-01-03T03:57:59.226Z,0.80
2019-01-03T04:00:47.367Z,0.60
2019-01-03T04:03:54.964Z,0.30
2019-01-03T04:06:47.101Z,0.00
2019-01-03T04:09:34.522Z,0.00
2019-01-03T04:12:22.359Z,-0.10
2019-01-03T04:15:04.253Z,-0.30
2019-01-03T04:17:59.254Z,-0.50
2019-01-03T04:20:47.190Z,-0.70
2019-01-03T04:23:35.335Z,-0.80
2019-01-03T04:26:38.518Z,-1.00
2019-01-03T04:29:26.363Z,-1.10
2019-01-03T04:32:14.604Z,-1.10
2019-01-03T04:35:02.340Z,-0.90
2019-01-03T04:37:58.569Z,-0.90
2019-01-03T04:40:57.763Z,-0.90
2019-01-03T04:43:53.079Z,-0.80
2019-01-03T04:46:41.119Z,-0.90
2019-01-03T04:49:21.897Z,-0.80
2019-01-03T04:52:19.030Z,-1.00
2019-01-03T04:55:11.275Z,-1.20
2019-01-03T04:57:59.418Z,-1.40
2019-01-03T05:00:48.685Z,-1.60
2019-01-03T05:03:38.362Z,-1.90
2019-01-03T05:06:30.602Z,-2.30
2019-01-03T05:09:32.260Z,-2.00
2019-01-03T05:12:22.451Z,-1.50
2019-01-03T05:15:20.522Z,-0.90
2019-01-03T05:18:08.663Z,-0.60
2019-01-03T05:20:52.504Z,-0.40
2019-01-03T05:23:40.446Z,-0.10
2019-01-03T05:26:35.546Z,0.20
2019-01-03T05:29:24.062Z,0.40
2019-01-03T05:32:11.930Z,0.30
2019-01-03T05:35:07.156Z,0.10
2019-01-03T05:37:53.334Z,0.00
2019-01-03T05:40:54.991Z,0.00
2019-01-03T05:43:43.030Z,0.10
2019-01-03T05:46:41.108Z,0.00
2019-01-03T05:49:39.178Z,0.20
2019-01-03T05:52:27.321Z,0.10
2019-01-03T05:55:25.703Z,-0.20
2019-01-03T05:58:14.048Z,-0.40
2019-01-03T06:01:01.681Z,-0.40
2019-01-03T06:03:51.049Z,-0.30
2019-01-03T06:06:40.212Z,-0.40
2019-01-03T06:09:28.456Z,-0.20
2019-01-03T06:12:20.693Z,-0.20
2019-01-03T06:15:11.087Z,-0.10
2019-01-03T06:18:00.461Z,0.00
2019-01-03T06:21:08.465Z,0.20
2019-01-03T06:24:01.923Z,0.20
2019-01-03T06:26:47.377Z,-0.30
2019-01-03T06:29:35.348Z,-0.30
2019-01-03T06:32:23.386Z,-0.30
2019-01-03T06:35:21.671Z,-0.20
2019-01-03T06:38:09.297Z,-0.10
2019-01-03T06:40:57.026Z,-0.50
2019-01-03T06:43:58.172Z,-0.80
2019-01-03T06:46:46.110Z,-0.70
2019-01-03T06:49:34.050Z,-0.80
2019-01-03T06:52:29.457Z,-0.80
2019-01-03T06:55:21.796Z,-0.70
2019-01-03T06:58:23.149Z,-0.60
2019-01-03T07:01:10.984Z,-0.80
2019-01-03T07:04:00.751Z,-0.80
2019-01-03T07:06:48.597Z,-0.80
2019-01-03T07:09:36.533Z,-0.70
2019-01-03T07:12:20.068Z,-0.70
2019-01-03T07:15:07.900Z,-0.50
2019-01-03T07:18:10.379Z,-0.40
2019-01-03T07:21:08.964Z,-0.50
2019-01-03T07:23:59.864Z,-0.60
2019-01-03T07:27:01.324Z,-0.70
2019-01-03T07:29:50.591Z,-0.80
2019-01-03T07:32:40.166Z,-0.70
2019-01-03T07:35:28.003Z,-0.60
2019-01-03T07:38:22.622Z,-0.40
2019-01-03T07:41:17.901Z,-0.30
2019-01-03T07:44:25.294Z,0.00
2019-01-03T07:47:09.801Z,0.20
2019-01-03T07:50:01.987Z,0.30
2019-01-03T07:52:51.156Z,0.60
2019-01-03T07:55:49.534Z,0.70
2019-01-03T07:58:37.267Z,0.80
2019-01-03T08:01:24.999Z,0.90
2019-01-03T08:04:13.242Z,1.00
2019-01-03T08:07:05.375Z,1.00
2019-01-03T08:10:03.758Z,1.10
2019-01-03T08:12:55.893Z,1.20
2019-01-03T08:15:50.693Z,1.30
2019-01-03T08:18:39.445Z,1.40
2019-01-03T08:21:27.381Z,1.50
2019-01-03T08:24:16.445Z,1.60
2019-01-03T08:27:08.785Z,1.80
2019-01-03T08:30:04.101Z,1.90
2019-01-03T08:32:52.440Z,1.90
2019-01-03T08:35:44.254Z,2.00
2019-01-03T08:38:42.033Z,2.20
2019-01-03T08:41:31.097Z,2.30
2019-01-03T08:44:19.343Z,2.50
2019-01-03T08:47:23.779Z,2.50
2019-01-03T08:50:15.898Z,2.60
2019-01-03T08:53:07.726Z,2.60
2019-01-03T08:55:53.398Z,2.60
2019-01-03T08:58:46.159Z,2.60
2019-01-03T09:01:34.301Z,2.70
2019-01-03T09:04:23.569Z,2.70
2019-01-03T09:07:24.919Z,2.80
2019-01-03T09:10:32.314Z,2.80
2019-01-03T09:13:39.909Z,2.70
2019-01-03T09:16:37.984Z,2.50
2019-01-03T09:19:26.943Z,2.30
2019-01-03T09:22:18.773Z,2.40
2019-01-03T09:25:16.743Z,2.60
2019-01-03T09:28:18.093Z,2.80
2019-01-03T09:31:13.198Z,2.90
2019-01-03T09:34:08.201Z,3.10
2019-01-03T09:36:56.239Z,3.20
2019-01-03T09:39:43.868Z,3.40
2019-01-03T09:42:33.034Z,3.50
2019-01-03T09:45:03.302Z,3.80
2019-01-03T09:47:33.540Z,3.80
2019-01-03T09:50:03.881Z,3.80
2019-01-03T09:52:34.145Z,4.00
2019-01-03T09:55:04.482Z,4.00
2019-01-03T09:57:34.900Z,4.00
2019-01-03T10:00:05.827Z,4.10
2019-01-03T10:02:36.790Z,4.10
2019-01-03T10:05:07.954Z,4.30
2019-01-03T10:07:38.200Z,4.30
2019-01-03T10:10:11.048Z,4.20
2019-01-03T10:12:46.174Z,4.40
2019-01-03T10:15:19.950Z,4.50
2019-01-03T10:17:51.353Z,4.70
2019-01-03T10:20:25.562Z,4.80
2019-01-03T10:22:55.507Z,5.00
2019-01-03T10:25:25.432Z,4.90
2019-01-03T10:27:55.434Z,4.90
2019-01-03T10:30:25.470Z,4.90
2019-01-03T10:32:55.779Z,5.10
2019-01-03T10:35:26.110Z,5.20
2019-01-03T10:37:56.386Z,5.20
2019-01-03T10:40:26.759Z,5.30
2019-01-03T10:42:57.046Z,5.50
2019-01-03T10:45:27.638Z,5.60
2019-01-03T10:47:57.895Z,5.60
2019-01-03T10:50:28.179Z,5.60
2019-01-03T10:52:58.444Z,5.50
2019-01-03T10:55:28.606Z,5.40
2019-01-03T10:57:58.957Z,5.50
2019-01-03T11:00:29.305Z,5.60
2019-01-03T11:02:59.483Z,5.60
2019-01-03T11:05:29.804Z,5.70
2019-01-03T11:08:00.067Z,5.70
2019-01-03T11:10:30.297Z,5.80
2019-01-03T11:13:00.558Z,5.80
2019-01-03T11:15:30.797Z,5.90
2019-01-03T11:18:01.060Z,6.20
2019-01-03T11:20:31.348Z,6.70
2019-01-03T11:23:02.493Z,6.80
2019-01-03T11:25:32.752Z,6.90
2019-01-03T11:28:02.962Z,7.00
2019-01-03T11:30:33.148Z,6.80
2019-01-03T11:33:03.482Z,6.50
2019-01-03T11:35:33.774Z,6.50
2019-01-03T11:38:04.046Z,6.60
2019-01-03T11:40:34.260Z,6.70
2019-01-03T11:43:04.546Z,6.60
2019-01-03T11:45:34.729Z,6.60
2019-01-03T11:48:05.187Z,6.60
2019-01-03T11:50:35.488Z,6.60
2019-01-03T11:53:06.860Z,6.60
2019-01-03T11:55:37.134Z,6.60
2019-01-03T11:58:07.395Z,6.60
2019-01-03T12:00:37.650Z,6.60
2019-01-03T12:03:07.895Z,6.50
2019-01-03T12:05:39.513Z,6.50
2019-01-03T12:08:09.805Z,6.60
2019-01-03T12:10:39.972Z,6.60
2019-01-03T12:13:10.316Z,6.50
2019-01-03T12:15:40.599Z,6.30
2019-01-03T12:18:10.832Z,6.40
2019-01-03T12:20:41.139Z,6.40
2019-01-03T12:23:12.398Z,6.40
2019-01-03T12:25:42.651Z,6.60
2019-01-03T12:28:12.980Z,6.60
2019-01-03T12:30:43.310Z,6.50
2019-01-03T12:33:13.490Z,6.50
2019-01-03T12:35:43.777Z,6.50
2019-01-03T12:38:14.064Z,6.40
2019-01-03T12:40:44.286Z,6.50
2019-01-03T12:43:14.562Z,6.50
2019-01-03T12:45:44.831Z,6.50
2019-01-03T12:48:15.049Z,6.60
2019-01-03T12:50:45.338Z,6.70
2019-01-03T12:53:15.588Z,6.80
2019-01-03T12:55:45.819Z,7.00
2019-01-03T12:58:16.109Z,7.80
2019-01-03T13:00:46.621Z,8.20
2019-01-03T13:03:16.842Z,8.20
2019-01-03T13:05:47.266Z,8.10
2019-01-03T13:08:17.554Z,8.10
2019-01-03T13:10:47.823Z,8.80
2019-01-03T13:13:18.106Z,8.70
2019-01-03T13:15:48.271Z,8.40
2019-01-03T13:18:18.421Z,8.10
2019-01-03T13:20:48.801Z,7.70
2019-01-03T13:23:19.618Z,7.20
2019-01-03T13:25:51.237Z,7.20
2019-01-03T13:28:21.591Z,7.90
2019-01-03T13:30:51.845Z,9.50
2019-01-03T13:33:22.108Z,9.90
2019-01-03T13:35:52.359Z,9.70
2019-01-03T13:38:22.624Z,9.60
2019-01-03T13:40:53.029Z,9.70
2019-01-03T13:43:23.341Z,10.50
2019-01-03T13:45:53.774Z,10.40
2019-01-03T13:48:24.075Z,10.70
2019-01-03T13:50:54.421Z,10.50
2019-01-03T13:53:24.704Z,10.00
2019-01-03T13:55:54.973Z,9.90
2019-01-03T13:58:25.263Z,10.00
2019-01-03T14:00:55.613Z,10.20
2019-01-03T14:03:25.761Z,9.80
2019-01-03T14:05:56.262Z,9.10
2019-01-03T14:08:26.569Z,9.20
2019-01-03T14:10:56.829Z,9.70
2019-01-03T14:13:27.147Z,9.70
2019-01-03T14:15:57.507Z,9.20
2019-01-03T14:18:27.879Z,8.50
2019-01-03T14:20:58.195Z,8.30
2019-01-03T14:23:28.444Z,8.70
2019-01-03T14:25:59.366Z,9.40
2019-01-03T14:28:31.265Z,9.50
2019-01-03T14:31:01.602Z,10.20
2019-01-03T14:33:31.835Z,10.20
2019-01-03T14:36:02.256Z,9.80
2019-01-03T14:38:33.332Z,9.40
2019-01-03T14:41:03.487Z,8.80
2019-01-03T14:43:33.777Z,8.70
2019-01-03T14:46:04.049Z,8.60
2019-01-03T14:48:34.248Z,8.40
2019-01-03T14:51:04.536Z,8.70
2019-01-03T14:53:34.841Z,8.60
2019-01-03T14:56:05.056Z,8.30
2019-01-03T14:58:35.398Z,8.00
2019-01-03T15:01:05.577Z,8.20
2019-01-03T15:03:35.822Z,8.00
2019-01-03T15:06:06.106Z,7.80
2019-01-03T15:08:38.124Z,7.00
2019-01-03T15:11:09.097Z,7.00
2019-01-03T15:13:39.863Z,8.00
2019-01-03T15:16:10.145Z,8.70
2019-01-03T15:18:40.717Z,9.20
2019-01-03T15:21:13.328Z,9.50
2019-01-03T15:23:43.387Z,9.80
2019-01-03T15:26:16.565Z,9.90
2019-01-03T15:28:46.926Z,9.90
2019-01-03T15:31:18.159Z,9.70
2019-01-03T15:33:48.445Z,9.40
2019-01-03T15:36:22.146Z,8.90
2019-01-03T15:38:52.625Z,8.30
2019-01-03T15:41:24.685Z,7.90
2019-01-03T15:44:02.228Z,7.50
2019-01-03T15:46:33.480Z,6.70
2019-01-03T15:49:03.790Z,5.80
2019-01-03T15:51:34.185Z,5.10
2019-01-03T15:54:04.513Z,4.50
2019-01-03T15:56:35.072Z,4.00
2019-01-03T15:59:05.323Z,3.50
2019-01-03T16:01:35.563Z,3.10
2019-01-03T16:04:05.865Z,2.70
2019-01-03T16:06:36.125Z,2.30
2019-01-03T16:09:07.214Z,2.10
2019-01-03T16:11:37.516Z,1.80
2019-01-03T16:14:07.776Z,1.70
2019-01-03T16:16:38.208Z,1.60
2019-01-03T16:19:08.528Z,1.40
2019-01-03T16:21:38.753Z,1.20
2019-01-03T16:24:08.952Z,0.90
2019-01-03T16:26:39.296Z,0.70
2019-01-03T16:29:09.539Z,0.70
2019-01-03T16:31:39.934Z,0.70
2019-01-03T16:34:11.229Z,0.50
2019-01-03T16:36:41.549Z,0.20
2019-01-03T16:39:11.750Z,-0.10
2019-01-03T16:41:41.958Z,-0.30
2019-01-03T16:44:12.197Z,-0.40
2019-01-03T16:46:42.416Z,-0.50
2019-01-03T16:49:12.685Z,-0.60
2019-01-03T16:51:42.926Z,-0.60
2019-01-03T16:54:13.201Z,-0.70
2019-01-03T16:56:43.453Z,-0.70
2019-01-03T16:59:13.694Z,-0.70
2019-01-03T17:01:44.833Z,-0.80
2019-01-03T17:04:15.120Z,-0.70
2019-01-03T17:06:45.463Z,-0.60
2019-01-03T17:09:15.747Z,-0.50
2019-01-03T17:11:45.912Z,-0.60
2019-01-03T17:14:16.070Z,-1.20
2019-01-03T17:16:46.451Z,-1.30
2019-01-03T17:19:16.783Z,-1.40
2019-01-03T17:21:47.097Z,-1.30
2019-01-03T17:24:17.862Z,-1.40
2019-01-03T17:26:48.134Z,-1.40
2019-01-03T17:29:18.443Z,-1.40
2019-01-03T17:31:48.675Z,-1.50
2019-01-03T17:34:18.923Z,-1.60
2019-01-03T17:36:49.177Z,-1.60
2019-01-03T17:39:19.418Z,-1.50
2019-01-03T17:41:49.701Z,-1.40
2019-01-03T17:44:20.009Z,-1.80
2019-01-03T17:46:50.280Z,-1.90
2019-01-03T17:49:20.546Z,-2.00
2019-01-03T17:51:50.836Z,-1.90
2019-01-03T17:54:21.048Z,-1.70
2019-01-03T17:56:51.308Z,-1.70
2019-01-03T17:59:21.698Z,-1.80
2019-01-03T18:01:51.898Z,-2.10
2019-01-03T18:04:22.193Z,-2.20
2019-01-03T18:06:52.441Z,-2.30
2019-01-03T18:09:22.686Z,-1.90
2019-01-03T18:11:52.970Z,-1.90
2019-01-03T18:14:23.258Z,-1.90
2019-01-03T18:16:53.426Z,-2.00
2019-01-03T18:19:23.729Z,-2.20
2019-01-03T18:21:53.923Z,-2.30
2019-01-03T18:24:24.179Z,-2.30
2019-01-03T18:26:54.481Z,-2.20
2019-01-03T18:29:25.115Z,-2.50
2019-01-03T18:31:55.365Z,-2.70
2019-01-03T18:34:25.684Z,-2.70
2019-01-03T18:36:56.091Z,-2.60
2019-01-03T18:39:27.564Z,-2.50
2019-01-03T18:41:58.273Z,-2.50
2019-01-03T18:44:28.665Z,-2.60
2019-01-03T18:47:01.669Z,-2.80
2019-01-03T18:49:32.077Z,-2.90
2019-01-03T18:52:02.304Z,-2.80
2019-01-03T18:54:32.584Z,-2.70
2019-01-03T18:57:02.801Z,-2.70
2019-01-03T18:59:33.072Z,-2.70
2019-01-03T19:02:03.500Z,-2.60
2019-01-03T19:04:33.698Z,-2.40
2019-01-03T19:07:04.219Z,-2.10
2019-01-03T19:09:34.902Z,-2.10
2019-01-03T19:12:05.313Z,-2.00
2019-01-03T19:14:35.587Z,-2.00
2019-01-03T19:17:09.336Z,-2.00
2019-01-03T19:19:40.048Z,-2.30
2019-01-03T19:22:11.675Z,-2.50
2019-01-03T19:24:41.910Z,-2.50
2019-01-03T19:27:12.113Z,-2.50
2019-01-03T19:29:50.889Z,-2.60
2019-01-03T19:32:21.269Z,-2.70
2019-01-03T19:35:10.600Z,-2.70
2019-01-03T19:37:40.854Z,-2.70
2019-01-03T19:40:13.996Z,-2.70
2019-01-03T19:42:45.537Z,-2.80
2019-01-03T19:45:15.702Z,-2.90
2019-01-03T19:47:46.041Z,-3.00
2019-01-03T19:50:18.575Z,-3.10
2019-01-03T19:52:49.170Z,-3.10
2019-01-03T19:55:19.567Z,-3.20
2019-01-03T19:57:49.840Z,-3.20
2019-01-03T20:00:20.104Z,-3.30
2019-01-03T20:02:50.412Z,-3.40
2019-01-03T20:05:20.860Z,-3.40
2019-01-03T20:07:51.228Z,-3.40
2019-01-03T20:10:21.480Z,-3.50
2019-01-03T20:12:51.740Z,-3.50
2019-01-03T20:15:21.997Z,-3.60
2019-01-03T20:17:52.363Z,-3.70
2019-01-03T20:20:22.623Z,-3.70
2019-01-03T20:22:52.806Z,-4.00
2019-01-03T20:25:23.130Z,-4.00
2019-01-03T20:27:53.408Z,-3.90
2019-01-03T20:30:23.608Z,-3.60
2019-01-03T20:32:53.854Z,-3.50
2019-01-03T20:35:24.178Z,-3.50
2019-01-03T20:37:54.501Z,-3.20
2019-01-03T20:40:25.891Z,-3.10
2019-01-03T20:42:56.169Z,-3.00
2019-01-03T20:45:29.407Z,-3.00
2019-01-03T20:47:59.919Z,-3.20
2019-01-03T20:50:30.085Z,-3.30
2019-01-03T20:53:00.306Z,-3.40
2019-01-03T20:55:30.513Z,-3.30
2019-01-03T20:58:00.906Z,-3.40
2019-01-03T21:00:31.158Z,-3.50
2019-01-03T21:03:01.523Z,-3.50
2019-01-03T21:05:31.830Z,-3.50
2019-01-03T21:08:02.061Z,-3.60
2019-01-03T21:10:32.309Z,-3.70
2019-01-03T21:13:02.613Z,-3.50
2019-01-03T21:15:32.937Z,-3.40
2019-01-03T21:18:03.300Z,-3.10
2019-01-03T21:20:33.572Z,-3.00
2019-01-03T21:23:03.890Z,-3.10
2019-01-03T21:25:34.194Z,-3.30
2019-01-03T21:28:04.531Z,-3.40
2019-01-03T21:30:34.758Z,-3.60
2019-01-03T21:33:05.020Z,-3.70
2019-01-03T21:35:35.402Z,-3.80
2019-01-03T21:38:05.785Z,-3.90
2019-01-03T21:40:36.109Z,-4.00
2019-01-03T21:43:07.397Z,-4.00
2019-01-03T21:45:37.644Z,-4.00
2019-01-03T21:48:07.912Z,-4.00
2019-01-03T21:50:38.127Z,-3.90
2019-01-03T21:53:08.367Z,-3.90
2019-01-03T21:55:38.662Z,-3.90
2019-01-03T21:58:08.919Z,-3.90
2019-01-03T22:00:39.226Z,-3.80
2019-01-03T22:03:09.522Z,-3.80
2019-01-03T22:05:39.803Z,-3.80
2019-01-03T22:08:10.003Z,-3.70
2019-01-03T22:10:40.298Z,-3.70
2019-01-03T22:13:10.550Z,-3.70
2019-01-03T22:15:40.794Z,-3.60
2019-01-03T22:18:11.050Z,-3.60
2019-01-03T22:20:41.298Z,-3.40
2019-01-03T22:23:11.580Z,-3.40
2019-01-03T22:25:41.848Z,-3.60
2019-01-03T22:28:12.118Z,-3.80
2019-01-03T22:30:44.111Z,-3.90
2019-01-03T22:33:14.459Z,-4.10
2019-01-03T22:35:44.721Z,-4.20
2019-01-03T22:38:14.992Z,-4.30
2019-01-03T22:40:45.294Z,-4.30
2019-01-03T22:43:16.477Z,-4.30
2019-01-03T22:45:46.712Z,-4.40
2019-01-03T22:48:16.990Z,-4.50
2019-01-03T22:50:47.274Z,-4.50
2019-01-03T22:53:17.505Z,-4.50
2019-01-03T22:55:47.766Z,-4.40
2019-01-03T22:58:18.035Z,-4.50
2019-01-03T23:00:51.124Z,-4.40
2019-01-03T23:03:21.438Z,-4.20
2019-01-03T23:05:51.768Z,-4.00
2019-01-03T23:08:22.036Z,-3.90
2019-01-03T23:10:52.353Z,-3.80
2019-01-03T23:13:22.652Z,-3.90
2019-01-03T23:15:53.031Z,-4.00
2019-01-03T23:18:23.476Z,-4.20
2019-01-03T23:20:53.838Z,-4.20
2019-01-03T23:23:24.202Z,-4.30
2019-01-03T23:25:54.540Z,-4.50
2019-01-03T23:28:24.772Z,-4.50
2019-01-03T23:30:55.052Z,-4.40
2019-01-03T23:33:25.332Z,-4.40
2019-01-03T23:35:55.429Z,-4.40
2019-01-03T23:38:25.924Z,-4.40
2019-01-03T23:40:56.173Z,-4.30
2019-01-03T23:43:26.417Z,-4.30
2019-01-03T23:45:57.605Z,-4.20
2019-01-03T23:48:27.905Z,-4.00
2019-01-03T23:50:58.290Z,-3.70
2019-01-03T23:53:28.509Z,-3.70
2019-01-03T23:55:59.692Z,-3.70
2019-01-03T23:58:30.002Z,-3.60
